Time;durP1;ratioP1;P1;durP2;ratioP2;P2;SDS_P1;SDS_P2;PMS_P1;PMS_P2;Temp;Humidity;BMP_temperature;BMP_pressure;BME280_temperature;BME280_humidity;BME280_pressure;Samples;Min_cycle;Max_cycle;Signal;HPM_P1;HPM_P2
2022/10/05 00:01:33;;;;;;;5.30;1.83;;;15.80;99.90;;;;;;20938056;28;20072;-38
2022/10/05 00:11:34;;;;;;;2.65;1.20;;;15.90;99.90;;;;;;20918446;28;20379;-38
2022/10/05 00:21:35;;;;;;;2.30;1.30;;;15.80;99.90;;;;;;20920877;28;20801;-38
2022/10/05 00:31:36;;;;;;;1.55;0.80;;;15.90;99.90;;;;;;20924702;28;20044;-38
2022/10/05 00:41:43;;;;;;;1.35;0.60;;;16.00;99.90;;;;;;20921959;28;20125;-38
2022/10/05 00:51:55;;;;;;;1.48;0.80;;;16.00;99.90;;;;;;20905785;28;20292;-39
2022/10/05 01:02:11;;;;;;;1.65;0.80;;;16.00;99.90;;;;;;20936872;28;20088;-38
2022/10/05 01:12:39;;;;;;;1.42;0.95;;;16.00;99.90;;;;;;20928803;28;20221;-38
2022/10/05 01:22:59;;;;;;;;;;;15.90;99.90;;;;;;20934996;28;21160;-38
2022/10/05 01:33:06;;;;;;;2.88;0.60;;;15.80;99.90;;;;;;20937656;28;20069;-38
2022/10/05 01:43:07;;;;;;;3.57;0.83;;;15.70;99.90;;;;;;20922166;28;20777;-38
2022/10/05 01:53:14;;;;;;;3.33;0.90;;;15.70;99.90;;;;;;20938180;28;20481;-38
2022/10/05 02:03:23;;;;;;;2.67;1.50;;;15.60;99.90;;;;;;20945995;28;20119;-38
2022/10/05 02:13:53;;;;;;;4.03;2.05;;;15.50;99.90;;;;;;20946473;28;20116;-38
2022/10/05 02:23:58;;;;;;;2.65;0.90;;;15.50;99.90;;;;;;20931346;28;20900;-38
2022/10/05 02:34:38;;;;;;;3.55;1.80;;;15.20;99.90;;;;;;20942798;28;20139;-39
2022/10/05 02:45:01;;;;;;;3.90;1.63;;;15.10;99.90;;;;;;20931821;28;20267;-38
2022/10/05 02:55:09;;;;;;;4.00;2.20;;;15.10;99.90;;;;;;20939377;28;20517;-38
2022/10/05 03:05:24;;;;;;;;;;;15.00;99.90;;;;;;20938331;28;20800;-38
2022/10/05 03:15:41;;;;;;;3.90;1.73;;;15.00;99.90;;;;;;20931480;28;20249;-38
2022/10/05 03:25:59;;;;;;;2.63;1.45;;;15.10;99.90;;;;;;20932942;28;21857;-39
2022/10/05 03:36:09;;;;;;;2.30;1.15;;;15.10;99.90;;;;;;20917463;28;20665;-38
2022/10/05 03:46:35;;;;;;;2.03;1.55;;;15.20;99.90;;;;;;20933425;28;20526;-38
2022/10/05 03:56:47;;;;;;;1.58;1.00;;;15.30;99.90;;;;;;20925979;28;20889;-38
2022/10/05 04:06:49;;;;;;;3.13;1.35;;;15.20;99.90;;;;;;20924809;28;20140;-38
2022/10/05 04:16:59;;;;;;;2.90;1.23;;;15.30;99.90;;;;;;20925990;28;20120;-38
2022/10/05 04:27:09;;;;;;;3.05;1.95;;;15.30;99.90;;;;;;20922852;28;20069;-38
2022/10/05 04:37:44;;;;;;;2.45;0.85;;;15.40;99.90;;;;;;20942689;28;20199;-38
2022/10/05 04:47:57;;;;;;;1.75;0.95;;;15.50;99.90;;;;;;20939177;28;20580;-38
2022/10/05 04:58:28;;;;;;;1.48;0.60;;;15.50;99.90;;;;;;20939771;28;20094;-38
2022/10/05 05:08:29;;;;;;;1.90;0.63;;;15.40;99.90;;;;;;20933491;28;20178;-38
2022/10/05 05:19:16;;;;;;;1.88;0.80;;;15.40;99.90;;;;;;20935206;28;20028;-38
2022/10/05 05:29:35;;;;;;;0.73;0.40;;;15.30;99.90;;;;;;20905808;28;20168;-38
2022/10/05 05:40:04;;;;;;;0.38;0.10;;;15.40;99.90;;;;;;20936191;28;20735;-38
2022/10/05 05:50:31;;;;;;;0.38;0.20;;;15.40;99.90;;;;;;20943076;28;20131;-38
2022/10/05 06:00:47;;;;;;;0.57;0.30;;;15.40;99.90;;;;;;20948539;28;20133;-38
2022/10/05 06:10:56;;;;;;;0.93;0.35;;;15.40;99.90;;;;;;20942220;28;21209;-38
2022/10/05 06:21:10;;;;;;;1.10;0.30;;;15.40;99.90;;;;;;20941567;28;20114;-38
2022/10/05 06:31:17;;;;;;;1.00;0.20;;;15.40;99.90;;;;;;20945144;28;20076;-38
2022/10/05 06:41:48;;;;;;;1.27;0.30;;;15.30;99.90;;;;;;20943558;28;20060;-38
2022/10/05 06:51:56;;;;;;;0.60;0.30;;;15.40;99.90;;;;;;20941043;28;21716;-38
2022/10/05 07:02:08;;;;;;;2.10;0.60;;;15.40;99.90;;;;;;20947023;28;20334;-38
2022/10/05 07:12:53;;;;;;;0.65;0.30;;;15.50;99.90;;;;;;20951207;28;21061;-38
2022/10/05 07:23:03;;;;;;;1.63;0.50;;;15.50;99.90;;;;;;20951131;28;20922;-39
2022/10/05 07:33:26;;;;;;;0.35;0.28;;;15.50;99.90;;;;;;20932600;28;20288;-38
2022/10/05 07:43:30;;;;;;;2.20;0.82;;;15.50;99.90;;;;;;20948803;28;20838;-38
2022/10/05 07:53:41;;;;;;;1.10;0.55;;;15.50;99.90;;;;;;20939103;28;20139;-38
2022/10/05 08:03:48;;;;;;;1.63;1.05;;;15.50;99.90;;;;;;20920492;28;20889;-38
2022/10/05 08:13:58;;;;;;;3.77;1.00;;;15.60;99.90;;;;;;20988120;28;20052;-38
2022/10/05 08:24:12;;;;;;;1.35;0.47;;;15.70;99.90;;;;;;20950710;28;20771;-38
2022/10/05 08:34:31;;;;;;;1.13;0.60;;;15.70;99.90;;;;;;20919095;28;20136;-38
2022/10/05 08:45:18;;;;;;;1.17;0.40;;;15.80;99.90;;;;;;20769989;28;20045;-38
2022/10/05 08:55:39;;;;;;;1.75;0.52;;;15.80;99.90;;;;;;20812147;28;20161;-38
2022/10/05 09:05:59;;;;;;;0.57;0.30;;;15.90;99.90;;;;;;20798499;28;20641;-38
2022/10/05 09:16:06;;;;;;;0.90;0.60;;;16.00;99.90;;;;;;20723623;28;20118;-38
2022/10/05 09:30:52;;;;;;;2.50;1.20;;;16.10;99.90;;;;;;20959875;27;1215928;-41
2022/10/05 09:41:15;;;;;;;1.58;0.60;;;16.30;99.90;;;;;;21069262;27;20771;-41
2022/10/05 09:51:22;;;;;;;1.00;0.40;;;16.40;99.90;;;;;;21091749;27;21044;-41
2022/10/05 10:02:15;;;;;;;2.40;0.60;;;16.60;99.90;;;;;;21101367;27;20078;-41
2022/10/05 10:12:31;;;;;;;2.00;0.43;;;16.60;99.90;;;;;;21049672;27;21901;-41
2022/10/05 10:22:32;;;;;;;1.67;0.70;;;16.60;99.90;;;;;;21108147;27;20085;-41
2022/10/05 10:33:00;;;;;;;3.33;1.40;;;16.60;99.90;;;;;;21096451;27;20084;-41
2022/10/05 10:43:21;;;;;;;;;;;16.60;99.90;;;;;;21032108;27;20244;-41
2022/10/05 10:53:34;;;;;;;1.65;0.80;;;16.50;99.90;;;;;;21051831;27;20883;-39
2022/10/05 11:03:37;;;;;;;2.03;1.30;;;16.40;99.90;;;;;;21001782;27;21139;-39
2022/10/05 11:14:12;;;;;;;1.73;0.77;;;16.60;99.90;;;;;;21052182;27;20505;-39
2022/10/05 11:24:37;;;;;;;1.60;0.90;;;16.60;99.90;;;;;;20996776;27;21857;-39
2022/10/05 11:34:59;;;;;;;1.83;0.73;;;16.80;99.90;;;;;;21034497;27;21877;-39
2022/10/05 11:45:21;;;;;;;3.63;1.00;;;16.80;99.90;;;;;;21024119;27;20871;-39
2022/10/05 11:55:32;;;;;;;1.10;0.50;;;16.80;99.90;;;;;;21026913;28;20163;-39
2022/10/05 12:06:03;;;;;;;1.60;0.90;;;16.80;99.90;;;;;;21022524;27;20043;-39
2022/10/05 12:16:17;;;;;;;1.20;0.50;;;17.00;99.90;;;;;;21024889;27;20881;-39
2022/10/05 12:26:30;;;;;;;1.42;0.70;;;17.00;99.90;;;;;;21034351;27;20444;-39
2022/10/05 12:36:42;;;;;;;1.58;0.82;;;17.10;99.90;;;;;;21044280;27;20137;-39
2022/10/05 12:46:57;;;;;;;2.28;1.05;;;17.10;99.90;;;;;;21030200;28;21133;-39
2022/10/05 12:57:06;;;;;;;1.60;0.75;;;17.20;99.90;;;;;;21043716;28;21649;-39
2022/10/05 13:07:13;;;;;;;1.60;0.70;;;17.20;99.90;;;;;;21025757;28;20148;-39
2022/10/05 13:17:46;;;;;;;2.33;1.27;;;17.30;99.90;;;;;;21020645;28;20183;-39
2022/10/05 13:27:54;;;;;;;1.83;1.08;;;17.30;99.90;;;;;;21008368;28;20863;-39
2022/10/05 13:38:24;;;;;;;2.85;0.80;;;17.30;99.90;;;;;;21018505;28;20188;-39
2022/10/05 13:48:45;;;;;;;1.48;0.90;;;17.40;99.90;;;;;;21006845;28;20290;-39
2022/10/05 13:58:51;;;;;;;2.00;0.90;;;17.30;99.90;;;;;;21011998;28;20888;-39
2022/10/05 14:08:52;;;;;;;2.42;0.90;;;17.50;99.90;;;;;;21007535;28;20832;-39
2022/10/05 14:19:02;;;;;;;1.17;0.65;;;17.50;99.90;;;;;;21017280;28;20087;-39
2022/10/05 14:29:21;;;;;;;1.00;0.43;;;17.50;99.90;;;;;;21024187;27;21275;-39
2022/10/05 14:39:27;;;;;;;3.80;0.60;;;17.50;99.90;;;;;;21023461;28;20531;-39
2022/10/05 14:49:35;;;;;;;5.30;0.50;;;17.40;99.90;;;;;;21023050;27;20127;-39
2022/10/05 15:00:10;;;;;;;2.40;0.85;;;17.50;99.90;;;;;;21011814;28;20557;-39
2022/10/05 15:10:38;;;;;;;1.88;0.82;;;18.00;99.90;;;;;;21007405;27;20881;-39
2022/10/05 15:21:05;;;;;;;0.68;0.30;;;17.60;99.90;;;;;;21006719;27;21493;-39
2022/10/05 15:31:43;;;;;;;1.88;0.80;;;17.60;99.90;;;;;;21012329;28;20564;-39
2022/10/05 15:41:48;;;;;;;2.45;0.85;;;17.50;99.90;;;;;;20997164;28;20876;-39
2022/10/05 15:52:16;;;;;;;1.35;0.60;;;17.50;99.90;;;;;;21015261;28;20357;-39
2022/10/05 16:02:21;;;;;;;;;;;17.50;99.90;;;;;;20998758;28;20130;-39
2022/10/05 16:12:41;;;;;;;1.10;0.40;;;17.40;99.90;;;;;;21018539;28;19920;-39
2022/10/05 16:23:01;;;;;;;0.95;0.40;;;17.40;99.90;;;;;;21014369;28;20730;-39
2022/10/05 16:33:14;;;;;;;1.25;0.55;;;17.40;99.90;;;;;;21028142;27;20996;-39
2022/10/05 16:43:48;;;;;;;1.92;0.85;;;17.30;99.90;;;;;;21007227;27;22560;-39
2022/10/05 16:54:00;;;;;;;3.67;0.70;;;17.30;99.90;;;;;;21020047;28;21422;-39
2022/10/05 17:04:39;;;;;;;1.75;0.45;;;17.30;99.90;;;;;;21009218;28;21339;-39
2022/10/05 17:15:02;;;;;;;3.08;0.68;;;17.30;99.90;;;;;;21018982;28;21107;-39
2022/10/05 17:25:21;;;;;;;0.82;0.40;;;17.20;99.90;;;;;;21014735;28;20884;-39
2022/10/05 17:36:03;;;;;;;1.27;0.45;;;17.30;99.90;;;;;;21010596;28;20312;-39
2022/10/05 17:46:08;;;;;;;4.18;0.43;;;17.20;99.90;;;;;;21016004;28;20823;-39
2022/10/05 17:56:09;;;;;;;1.80;0.68;;;17.10;99.90;;;;;;21033177;27;20032;-39
2022/10/05 18:06:32;;;;;;;1.70;0.65;;;17.10;99.90;;;;;;21036020;28;20094;-39
2022/10/05 18:17:25;;;;;;;4.22;1.27;;;17.10;99.90;;;;;;21026839;27;20063;-39
2022/10/05 18:27:42;;;;;;;1.27;0.50;;;17.20;99.90;;;;;;21025095;27;21870;-39
2022/10/05 18:38:20;;;;;;;3.03;1.03;;;17.20;99.90;;;;;;21002880;28;20880;-39
2022/10/05 18:48:46;;;;;;;1.60;0.60;;;17.30;99.90;;;;;;21023271;27;21178;-39
2022/10/05 18:59:05;;;;;;;3.72;1.02;;;17.20;99.90;;;;;;21016721;27;20159;-39
2022/10/05 19:09:27;;;;;;;2.20;0.93;;;16.20;99.90;;;;;;21024034;27;22166;-39
2022/10/05 19:19:47;;;;;;;2.88;1.17;;;15.60;99.90;;;;;;21025148;28;20120;-39
2022/10/05 19:30:14;;;;;;;0.75;0.20;;;15.60;99.90;;;;;;21016687;27;20193;-39
2022/10/05 19:40:42;;;;;;;1.15;0.57;;;15.30;99.90;;;;;;21018523;27;20837;-40
2022/10/05 19:50:56;;;;;;;1.38;0.52;;;14.90;99.90;;;;;;21019789;27;20843;-40
2022/10/05 20:01:05;;;;;;;0.93;0.20;;;14.60;99.90;;;;;;20997835;28;20185;-40
2022/10/05 20:11:13;;;;;;;1.42;0.40;;;14.40;99.90;;;;;;20998895;28;20180;-39
2022/10/05 20:21:45;;;;;;;1.45;0.40;;;14.30;99.90;;;;;;20991357;28;20143;-39
2022/10/05 20:31:46;;;;;;;2.47;0.43;;;14.40;99.90;;;;;;20995815;27;20850;-39
2022/10/05 20:41:47;;;;;;;2.03;0.30;;;14.40;99.90;;;;;;20994797;28;20075;-39
2022/10/05 20:51:48;;;;;;;1.95;0.10;;;14.50;99.90;;;;;;20989429;28;20531;-39
2022/10/05 21:01:50;;;;;;;0.55;0.55;;;14.30;99.90;;;;;;20994674;27;20179;-39
2022/10/05 21:11:53;;;;;;;0.17;0.00;;;13.80;99.90;;;;;;20995725;28;20492;-39
2022/10/05 21:21:58;;;;;;;0.22;0.05;;;13.60;99.90;;;;;;20987859;28;20100;-39
2022/10/05 21:31:59;;;;;;;0.40;0.17;;;13.50;99.90;;;;;;20993121;28;20304;-39
2022/10/05 21:42:00;;;;;;;0.47;0.10;;;13.30;99.90;;;;;;20995343;28;20208;-39
2022/10/05 21:52:04;;;;;;;0.25;0.17;;;13.20;99.90;;;;;;21013521;28;20444;-39
2022/10/05 22:02:05;;;;;;;0.43;0.10;;;13.20;99.90;;;;;;20987936;28;20082;-39
2022/10/05 22:12:06;;;;;;;1.52;0.13;;;13.20;99.90;;;;;;21007774;28;20123;-39
2022/10/05 22:22:07;;;;;;;4.30;0.70;;;13.40;99.90;;;;;;21002080;28;20284;-39
2022/10/05 22:32:08;;;;;;;1.67;0.45;;;13.50;99.90;;;;;;21002822;28;20475;-39
2022/10/05 22:42:09;;;;;;;3.45;0.65;;;13.60;99.90;;;;;;21007001;28;20096;-39
2022/10/05 22:52:10;;;;;;;4.07;0.68;;;13.50;99.90;;;;;;21002305;28;20707;-39
2022/10/05 23:02:12;;;;;;;3.28;0.60;;;13.50;99.90;;;;;;21012151;28;20469;-39
2022/10/05 23:12:13;;;;;;;1.52;0.40;;;13.40;99.90;;;;;;21030910;28;20117;-39
2022/10/05 23:22:14;;;;;;;2.40;1.10;;;13.30;99.90;;;;;;21034899;28;20170;-39
2022/10/05 23:32:15;;;;;;;2.45;0.85;;;13.30;99.90;;;;;;21030804;28;20062;-39
2022/10/05 23:42:17;;;;;;;7.15;1.30;;;13.20;99.90;;;;;;21034637;28;20411;-39
2022/10/05 23:52:18;;;;;;;11.07;1.48;;;13.30;99.90;;;;;;21026095;28;20130;-39
